Weather at Agios Pavlos Airfield

Public forecast

Using degrees Celsius for public forecast. Weather courtesy of forecast.io.

Closest aviation weather report (METAR) to Agios Pavlos Airfield

Closest report is Thessaloniki Macedonia International Airport, 9.9 nm (18.2 km) NNW. Retrieved 2022/01/17 16:20 UTC (27 seconds ago):

LGTS 171620Z 34010KT CAVOK 09/M01 Q1019 NOSIG

Closest aviation forecast (TAF) to Agios Pavlos Airfield

Closest forecast is Thessaloniki Macedonia International Airport, 9.9 nm (18.2 km) NNW. Retrieved 2022/01/17 12:12 UTC (4 hours ago):

TAF LGTS 171100Z 1712/1812 34012KT 9999 FEW030 TEMPO 1714/1812 34015G30KT PROB40 TEMPO 1802/1810 34025G35KT